createdAt,value
2019-02-23T00:01:15.673Z,45.60
2019-02-23T00:03:45.517Z,45.98
2019-02-23T00:06:14.617Z,48.00
2019-02-23T00:08:43.656Z,45.00
2019-02-23T00:11:15.885Z,48.63
2019-02-23T00:13:48.978Z,48.87
2019-02-23T00:16:18.673Z,43.50
2019-02-23T00:18:50.904Z,43.80
2019-02-23T00:21:20.244Z,44.90
2019-02-23T00:23:49.929Z,39.43
2019-02-23T00:26:18.988Z,39.47
2019-02-23T00:28:48.605Z,41.17
2019-02-23T00:31:17.980Z,41.13
2019-02-23T00:33:47.068Z,43.00
2019-02-23T00:36:16.741Z,43.50
2019-02-23T00:38:47.524Z,41.53
2019-02-23T00:41:20.332Z,41.47
2019-02-23T00:43:49.420Z,38.07
2019-02-23T00:46:18.531Z,37.97
2019-02-23T00:48:47.912Z,40.17
2019-02-23T00:51:17.111Z,36.67
2019-02-23T00:53:46.208Z,37.70
2019-02-23T00:56:15.637Z,39.37
2019-02-23T00:58:44.873Z,40.70
2019-02-23T01:01:14.271Z,37.57
2019-02-23T01:03:43.992Z,43.80
2019-02-23T01:06:13.148Z,41.43
2019-02-23T01:08:42.251Z,38.70
2019-02-23T01:11:11.496Z,37.83
2019-02-23T01:13:40.636Z,38.37
2019-02-23T01:16:11.126Z,38.47
2019-02-23T01:18:40.756Z,33.37
2019-02-23T01:21:09.888Z,34.67
2019-02-23T01:23:39.264Z,34.20
2019-02-23T01:26:08.628Z,34.93
2019-02-23T01:28:37.731Z,37.83
2019-02-23T01:31:07.092Z,34.55
2019-02-23T01:36:10.916Z,32.43
2019-02-23T01:38:40.768Z,36.33
2019-02-23T01:41:11.412Z,32.23
2019-02-23T01:43:40.560Z,39.93
2019-02-23T01:46:09.776Z,33.07
2019-02-23T01:48:39.180Z,35.73
2019-02-23T01:51:09.414Z,32.00
2019-02-23T01:53:38.594Z,36.08
2019-02-23T01:56:08.064Z,34.23
2019-02-23T01:58:37.170Z,32.40
2019-02-23T02:01:06.794Z,36.93
2019-02-23T02:03:35.961Z,34.60
2019-02-23T02:06:05.036Z,32.83
2019-02-23T02:08:35.060Z,31.20
2019-02-23T02:11:04.216Z,33.77
2019-02-23T02:13:33.312Z,31.90
2019-02-23T02:16:02.424Z,37.20
2019-02-23T02:18:32.049Z,32.93
2019-02-23T02:21:01.246Z,39.83
2019-02-23T02:23:30.443Z,30.37
2019-02-23T02:25:59.608Z,37.07
2019-02-23T02:28:28.852Z,33.00
2019-02-23T02:30:58.269Z,37.63
2019-02-23T02:33:27.350Z,30.30
2019-02-23T02:35:56.529Z,29.13
2019-02-23T02:38:42.529Z,30.35
2019-02-23T02:41:12.836Z,31.07
2019-02-23T02:43:42.189Z,25.43
2019-02-23T02:46:11.347Z,27.60
2019-02-23T02:48:41.088Z,29.00
2019-02-23T02:51:10.192Z,25.67
2019-02-23T02:53:39.532Z,26.17
2019-02-23T02:56:09.252Z,25.10
2019-02-23T02:58:38.924Z,24.53
2019-02-23T03:01:08.124Z,26.50
2019-02-23T03:03:37.967Z,34.27
2019-02-23T03:06:08.058Z,27.43
2019-02-23T03:08:37.146Z,22.60
2019-02-23T03:11:06.494Z,23.53
2019-02-23T03:13:35.841Z,28.27
2019-02-23T03:16:04.963Z,25.53
2019-02-23T03:18:34.360Z,25.60
2019-02-23T03:21:03.436Z,25.47
2019-02-23T03:23:32.856Z,22.63
2019-02-23T03:26:02.103Z,24.10
2019-02-23T03:28:31.558Z,27.20
2019-02-23T03:31:02.663Z,24.25
2019-02-23T03:33:31.702Z,26.23
2019-02-23T03:36:02.881Z,25.93
2019-02-23T03:38:31.939Z,26.30
2019-02-23T03:41:01.041Z,25.40
2019-02-23T03:43:30.445Z,28.75
2019-02-23T03:46:31.193Z,26.93
2019-02-23T03:49:00.418Z,23.90
2019-02-23T03:51:29.469Z,23.17
2019-02-23T03:53:59.975Z,27.40
2019-02-23T03:56:29.622Z,23.90
2019-02-23T03:58:58.794Z,24.80
2019-02-23T04:01:27.880Z,27.03
2019-02-23T04:03:57.053Z,24.63
2019-02-23T04:06:26.850Z,23.40
2019-02-23T04:08:56.251Z,25.30
2019-02-23T04:11:25.536Z,24.47
2019-02-23T04:13:54.604Z,27.10
2019-02-23T04:16:23.692Z,25.13
2019-02-23T04:18:54.983Z,22.87
2019-02-23T04:21:24.910Z,26.87
2019-02-23T04:23:55.313Z,26.73
2019-02-23T04:26:24.646Z,26.40
2019-02-23T04:28:53.797Z,29.30
2019-02-23T04:31:22.909Z,27.00
2019-02-23T04:33:52.037Z,26.67
2019-02-23T04:36:21.404Z,30.90
2019-02-23T04:38:50.466Z,28.00
2019-02-23T04:41:19.617Z,30.83
2019-02-23T04:43:49.796Z,29.77
2019-02-23T04:46:19.191Z,27.33
2019-02-23T04:48:50.029Z,28.07
2019-02-23T04:51:19.276Z,28.35
2019-02-23T04:53:48.493Z,28.67
2019-02-23T04:56:18.311Z,26.87
2019-02-23T04:58:47.410Z,27.67
2019-02-23T05:01:17.065Z,30.57
2019-02-23T05:03:46.457Z,27.17
2019-02-23T05:06:34.580Z,30.95
2019-02-23T05:09:04.423Z,29.77
2019-02-23T05:11:33.548Z,27.23
2019-02-23T05:14:02.858Z,29.93
2019-02-23T05:16:32.000Z,30.67
2019-02-23T05:19:01.337Z,29.47
2019-02-23T05:21:30.496Z,29.70
2019-02-23T05:24:15.484Z,29.57
2019-02-23T05:26:44.604Z,33.03
2019-02-23T05:29:14.102Z,33.90
2019-02-23T05:31:44.150Z,34.03
2019-02-23T05:34:14.491Z,32.33
2019-02-23T05:36:47.702Z,31.60
2019-02-23T05:39:17.830Z,30.97
2019-02-23T05:41:47.229Z,31.07
2019-02-23T05:44:16.399Z,35.47
2019-02-23T05:46:45.745Z,34.00
2019-02-23T05:49:14.864Z,30.90
2019-02-23T05:51:43.959Z,33.13
2019-02-23T05:54:13.288Z,39.70
2019-02-23T05:56:43.339Z,34.23
2019-02-23T05:59:12.537Z,35.97
2019-02-23T06:01:42.230Z,33.47
2019-02-23T06:04:11.352Z,34.00
2019-02-23T06:06:40.460Z,33.13
2019-02-23T06:09:09.843Z,32.05
2019-02-23T06:11:38.917Z,30.50
2019-02-23T06:14:07.980Z,31.00
2019-02-23T06:16:37.624Z,32.20
2019-02-23T06:19:07.039Z,29.70
2019-02-23T06:21:36.543Z,29.63
2019-02-23T06:24:05.790Z,32.03
2019-02-23T06:26:34.883Z,30.15
2019-02-23T06:29:04.348Z,28.73
2019-02-23T06:31:33.624Z,29.85
2019-02-23T06:34:14.983Z,27.33
2019-02-23T06:36:33.908Z,30.13
2019-02-23T06:39:03.012Z,29.53
2019-02-23T06:41:32.373Z,28.90
2019-02-23T06:44:02.304Z,29.60
2019-02-23T06:46:31.448Z,29.17
2019-02-23T06:49:00.648Z,28.43
2019-02-23T06:51:30.860Z,29.70
2019-02-23T06:54:00.276Z,29.87
2019-02-23T06:56:29.357Z,27.33
2019-02-23T06:59:03.128Z,30.90
2019-02-23T07:01:32.191Z,28.60
2019-02-23T07:04:01.302Z,29.70
2019-02-23T07:06:31.009Z,29.10
2019-02-23T07:09:00.575Z,30.20
2019-02-23T07:11:29.780Z,27.30
2019-02-23T07:13:58.862Z,25.60
2019-02-23T07:16:28.194Z,27.23
2019-02-23T07:18:57.323Z,26.37
2019-02-23T07:21:27.394Z,25.67
2019-02-23T07:23:58.160Z,23.40
2019-02-23T07:26:28.033Z,27.80
2019-02-23T07:28:57.156Z,26.17
2019-02-23T07:31:26.569Z,29.33
2019-02-23T07:33:55.932Z,29.67
2019-02-23T07:36:26.052Z,24.52
2019-02-23T07:38:55.424Z,33.73
2019-02-23T07:41:24.592Z,27.40
2019-02-23T07:43:53.780Z,25.67
2019-02-23T07:46:23.256Z,27.83
2019-02-23T07:48:52.542Z,25.62
2019-02-23T07:51:21.778Z,22.50
2019-02-23T07:53:50.914Z,25.25
2019-02-23T07:56:20.317Z,25.00
2019-02-23T07:58:50.308Z,23.30
2019-02-23T08:01:19.407Z,25.43
2019-02-23T08:03:48.482Z,28.30
2019-02-23T08:06:17.844Z,22.45
2019-02-23T08:08:46.932Z,24.40
2019-02-23T08:11:16.342Z,23.07
2019-02-23T08:13:45.804Z,22.47
2019-02-23T08:16:15.228Z,26.02
2019-02-23T08:18:45.418Z,25.12
2019-02-23T08:21:14.918Z,22.27
2019-02-23T08:23:44.110Z,24.63
2019-02-23T08:26:13.571Z,22.25
2019-02-23T08:28:43.214Z,24.67
2019-02-23T08:31:13.456Z,24.23
2019-02-23T08:33:42.939Z,25.63
2019-02-23T08:36:12.592Z,22.20
2019-02-23T08:38:41.670Z,21.17
2019-02-23T08:41:10.760Z,27.37
2019-02-23T08:43:40.373Z,24.23
2019-02-23T08:46:09.476Z,25.20
2019-02-23T08:48:38.967Z,28.03
2019-02-23T08:51:11.620Z,26.60
2019-02-23T08:53:40.602Z,24.07
2019-02-23T08:56:09.964Z,26.00
2019-02-23T08:58:39.234Z,25.10
2019-02-23T09:01:08.573Z,25.50
2019-02-23T09:03:38.054Z,25.07
2019-02-23T09:06:10.647Z,24.33
2019-02-23T09:08:40.026Z,21.17
2019-02-23T09:11:09.492Z,24.13
2019-02-23T09:13:38.500Z,24.40
2019-02-23T09:16:07.714Z,26.00
2019-02-23T09:18:41.244Z,26.07
2019-02-23T09:21:10.666Z,25.13
2019-02-23T09:23:40.158Z,24.37
2019-02-23T09:26:09.402Z,26.35
2019-02-23T09:28:38.492Z,23.38
2019-02-23T09:31:07.632Z,21.70
2019-02-23T09:33:37.101Z,21.63
2019-02-23T09:36:06.228Z,23.63
2019-02-23T09:38:35.525Z,26.87
2019-02-23T09:41:04.579Z,22.77
2019-02-23T09:43:33.651Z,22.33
2019-02-23T09:46:02.749Z,23.37
2019-02-23T09:48:31.898Z,26.83
2019-02-23T09:51:01.364Z,24.63
2019-02-23T09:53:30.663Z,23.43
2019-02-23T09:56:00.151Z,27.60
2019-02-23T09:58:31.192Z,22.70
2019-02-23T10:00:59.973Z,23.13
2019-02-23T10:03:29.644Z,22.03
2019-02-23T10:05:58.710Z,23.47
2019-02-23T10:08:28.010Z,25.57
2019-02-23T10:10:57.736Z,22.20
2019-02-23T10:13:26.989Z,22.43
2019-02-23T10:15:56.861Z,22.22
2019-02-23T10:18:25.904Z,21.37
2019-02-23T10:20:55.013Z,21.48
2019-02-23T10:23:24.183Z,20.87
2019-02-23T10:25:53.290Z,20.65
2019-02-23T10:28:22.646Z,22.87
2019-02-23T10:30:52.688Z,20.23
2019-02-23T10:33:22.208Z,22.87
2019-02-23T10:35:51.816Z,19.57
2019-02-23T10:38:20.816Z,18.90
2019-02-23T10:40:50.009Z,22.37
2019-02-23T10:43:19.124Z,20.43
2019-02-23T10:45:49.496Z,18.93
2019-02-23T10:48:33.977Z,20.90
2019-02-23T10:51:03.581Z,16.50
2019-02-23T10:53:33.202Z,18.27
2019-02-23T10:56:18.115Z,18.63
2019-02-23T10:58:47.519Z,20.60
2019-02-23T11:01:16.968Z,19.23
2019-02-23T11:03:46.258Z,19.37
2019-02-23T11:06:15.364Z,20.43
2019-02-23T11:08:44.897Z,17.33
2019-02-23T11:11:14.087Z,16.75
2019-02-23T11:13:43.582Z,20.53
2019-02-23T11:16:14.448Z,23.52
2019-02-23T11:18:43.785Z,19.27
2019-02-23T11:21:13.371Z,15.50
2019-02-23T11:23:44.487Z,16.40
2019-02-23T11:26:13.946Z,17.73
2019-02-23T11:28:43.511Z,16.73
2019-02-23T11:31:12.881Z,16.17
2019-02-23T11:33:57.740Z,15.23
2019-02-23T11:36:27.181Z,17.30
2019-02-23T11:38:56.456Z,15.83
2019-02-23T11:41:26.076Z,15.57
2019-02-23T11:43:56.289Z,13.30
2019-02-23T11:46:25.700Z,12.50
2019-02-23T11:48:54.791Z,13.88
2019-02-23T11:52:02.381Z,11.40
2019-02-23T11:55:12.727Z,13.23
2019-02-23T11:58:09.472Z,11.73
2019-02-23T12:01:00.590Z,15.27
2019-02-23T12:04:08.329Z,15.07
2019-02-23T12:06:39.749Z,13.97
2019-02-23T12:09:09.314Z,13.17
2019-02-23T12:11:38.660Z,13.88
2019-02-23T12:14:10.896Z,15.40
2019-02-23T12:16:40.294Z,14.37
2019-02-23T12:19:10.656Z,14.93
2019-02-23T12:21:39.753Z,13.57
2019-02-23T12:24:08.996Z,13.40
2019-02-23T12:26:38.197Z,13.87
2019-02-23T12:29:07.600Z,13.37
2019-02-23T12:31:37.045Z,13.30
2019-02-23T12:34:06.522Z,18.17
2019-02-23T12:36:35.916Z,14.73
2019-02-23T12:39:05.697Z,15.20
2019-02-23T12:41:34.753Z,11.93
2019-02-23T12:44:03.916Z,13.83
2019-02-23T12:46:33.156Z,12.20
2019-02-23T12:49:02.492Z,11.78
2019-02-23T12:51:31.498Z,13.43
2019-02-23T12:54:00.629Z,11.10
2019-02-23T12:56:29.784Z,12.97
2019-02-23T12:58:58.972Z,10.50
2019-02-23T13:01:28.196Z,10.77
2019-02-23T13:03:57.533Z,13.90
2019-02-23T13:06:26.960Z,11.90
2019-02-23T13:09:35.894Z,9.87
2019-02-23T13:12:17.648Z,9.70
2019-02-23T13:15:09.309Z,10.33
2019-02-23T13:18:18.027Z,10.80
2019-02-23T13:21:33.668Z,10.37
2019-02-23T13:24:51.676Z,10.73
2019-02-23T13:27:55.454Z,11.23
2019-02-23T13:31:08.498Z,10.13
2019-02-23T13:34:18.822Z,13.27
2019-02-23T13:37:26.986Z,9.70
2019-02-23T13:40:33.193Z,9.23
2019-02-23T13:43:58.341Z,10.10
2019-02-23T13:47:15.352Z,9.00
2019-02-23T13:50:37.279Z,14.47
2019-02-23T13:53:33.227Z,10.60
2019-02-23T13:56:39.546Z,8.90
2019-02-23T13:59:46.171Z,8.73
2019-02-23T14:02:55.735Z,10.47
2019-02-23T14:06:04.430Z,10.20
2019-02-23T14:09:21.025Z,14.90
2019-02-23T14:12:23.632Z,9.80
2019-02-23T14:15:34.659Z,9.00
2019-02-23T14:18:50.652Z,9.97
2019-02-23T14:21:53.917Z,11.75
2019-02-23T14:24:59.948Z,12.70
2019-02-23T14:28:07.444Z,10.73
2019-02-23T14:31:03.468Z,11.20
2019-02-23T14:34:21.622Z,9.13
2019-02-23T14:37:10.623Z,9.97
2019-02-23T14:40:26.971Z,11.87
2019-02-23T14:43:30.073Z,8.63
2019-02-23T14:46:54.931Z,8.83
2019-02-23T14:49:51.609Z,9.73
2019-02-23T14:53:02.120Z,12.47
2019-02-23T14:56:00.965Z,8.30
2019-02-23T14:59:08.569Z,9.67
2019-02-23T15:02:07.525Z,9.00
2019-02-23T15:05:13.527Z,8.77
2019-02-23T15:08:13.136Z,7.53
2019-02-23T15:11:24.453Z,8.73
2019-02-23T15:14:49.108Z,11.03
2019-02-23T15:18:01.048Z,11.90
2019-02-23T15:21:01.664Z,9.40
2019-02-23T15:24:07.644Z,10.13
2019-02-23T15:27:14.008Z,15.70
2019-02-23T15:30:14.394Z,8.83
2019-02-23T15:33:29.279Z,9.30
2019-02-23T15:37:00.269Z,8.15
2019-02-23T15:40:01.027Z,10.73
2019-02-23T15:42:41.823Z,10.82
2019-02-23T15:45:45.923Z,7.97
2019-02-23T15:48:42.619Z,9.87
2019-02-23T15:51:12.108Z,9.53
2019-02-23T15:53:43.031Z,11.65
2019-02-23T15:56:12.332Z,10.23
2019-02-23T15:58:43.188Z,9.43
2019-02-23T16:01:12.542Z,8.23
2019-02-23T16:03:47.023Z,8.50
2019-02-23T16:06:17.044Z,8.13
2019-02-23T16:08:46.745Z,11.83
2019-02-23T16:11:15.932Z,7.55
2019-02-23T16:13:45.201Z,7.83
2019-02-23T16:16:14.400Z,9.40
2019-02-23T16:18:44.334Z,7.73
2019-02-23T16:21:13.861Z,8.77
2019-02-23T16:23:43.364Z,8.98
2019-02-23T16:26:12.493Z,6.90
2019-02-23T16:28:41.604Z,8.95
2019-02-23T16:31:10.876Z,7.57
2019-02-23T16:33:40.478Z,7.53
2019-02-23T16:36:09.600Z,5.53
2019-02-23T16:38:38.692Z,7.58
2019-02-23T16:41:07.848Z,12.40
2019-02-23T16:43:37.604Z,6.87
2019-02-23T16:46:06.732Z,7.77
2019-02-23T16:48:36.376Z,8.60
2019-02-23T16:53:39.803Z,6.85
2019-02-23T16:56:10.432Z,8.18
2019-02-23T16:58:40.113Z,11.07
2019-02-23T17:01:09.736Z,7.47
2019-02-23T17:03:39.159Z,8.77
2019-02-23T17:06:08.964Z,9.30
2019-02-23T17:08:38.399Z,9.77
2019-02-23T17:11:07.464Z,8.90
2019-02-23T17:13:36.680Z,10.43
2019-02-23T17:16:05.804Z,9.40
2019-02-23T17:18:35.073Z,10.23
2019-02-23T17:21:04.278Z,13.40
2019-02-23T17:23:33.595Z,11.20
2019-02-23T17:26:04.425Z,10.53
2019-02-23T17:28:33.830Z,9.83
2019-02-23T17:31:04.476Z,11.30
2019-02-23T17:33:33.674Z,10.63
2019-02-23T17:36:03.406Z,16.10
2019-02-23T17:38:32.788Z,9.90
2019-02-23T17:41:02.229Z,14.10
2019-02-23T17:43:31.754Z,15.30
2019-02-23T17:46:01.684Z,10.03
2019-02-23T17:51:01.861Z,11.63
2019-02-23T17:53:31.520Z,11.12
2019-02-23T17:56:02.542Z,11.87
2019-02-23T17:58:31.768Z,11.55
2019-02-23T18:01:01.258Z,13.88
2019-02-23T18:03:30.368Z,12.70
2019-02-23T18:05:59.748Z,16.47
2019-02-23T18:08:28.856Z,13.27
2019-02-23T18:10:58.200Z,12.73
2019-02-23T18:13:27.324Z,12.80
2019-02-23T18:15:57.232Z,12.58
2019-02-23T18:18:26.419Z,11.57
2019-02-23T18:20:55.708Z,12.03
2019-02-23T18:23:24.846Z,12.90
2019-02-23T18:25:54.411Z,12.27
2019-02-23T18:28:23.440Z,10.20
2019-02-23T18:30:52.516Z,12.27
2019-02-23T18:33:21.862Z,11.00
2019-02-23T18:35:51.000Z,13.13
2019-02-23T18:40:57.121Z,12.83
2019-02-23T18:43:26.188Z,11.37
2019-02-23T18:45:56.660Z,12.73
2019-02-23T18:48:25.728Z,13.97
2019-02-23T18:50:54.836Z,14.80
2019-02-23T18:53:23.956Z,15.20
2019-02-23T18:55:53.172Z,13.87
2019-02-23T18:58:27.492Z,14.40
2019-02-23T19:00:56.918Z,20.57
2019-02-23T19:03:27.992Z,14.83
2019-02-23T19:05:57.428Z,13.00
2019-02-23T19:08:30.288Z,16.30
2019-02-23T19:11:00.064Z,12.93
2019-02-23T19:13:29.355Z,12.58
2019-02-23T19:15:58.779Z,12.97
2019-02-23T19:18:28.583Z,14.23
2019-02-23T19:21:01.472Z,14.53
2019-02-23T19:23:30.768Z,12.67
2019-02-23T19:26:00.052Z,15.38
2019-02-23T19:28:29.113Z,15.80
2019-02-23T19:30:58.630Z,14.77
2019-02-23T19:33:27.688Z,14.23
2019-02-23T19:38:31.236Z,15.83
2019-02-23T19:41:01.280Z,14.40
2019-02-23T19:43:30.401Z,18.03
2019-02-23T19:45:59.684Z,13.50
2019-02-23T19:48:28.876Z,13.90
2019-02-23T19:51:03.260Z,13.23
2019-02-23T19:53:32.272Z,13.27
2019-02-23T19:56:01.293Z,18.57
2019-02-23T19:58:30.879Z,14.03
2019-02-23T20:00:59.952Z,17.37
2019-02-23T20:03:30.264Z,15.73
2019-02-23T20:05:59.321Z,18.00
2019-02-23T20:08:28.876Z,20.85
2019-02-23T20:10:58.266Z,17.67
2019-02-23T20:13:28.019Z,17.50
2019-02-23T20:15:57.155Z,14.77
2019-02-23T20:18:26.244Z,20.30
2019-02-23T20:20:55.876Z,18.80
2019-02-23T20:26:00.009Z,20.20
2019-02-23T20:28:29.504Z,21.52
2019-02-23T20:30:58.564Z,23.90
2019-02-23T20:33:27.894Z,19.77
2019-02-23T20:35:57.000Z,19.53
2019-02-23T20:38:26.165Z,22.37
2019-02-23T20:40:55.749Z,20.17
2019-02-23T20:43:44.212Z,21.37
2019-02-23T20:46:13.717Z,17.13
2019-02-23T20:48:43.936Z,23.10
2019-02-23T20:51:14.345Z,21.10
2019-02-23T20:53:45.356Z,18.33
2019-02-23T20:56:14.533Z,19.07
2019-02-23T20:58:43.705Z,21.13
2019-02-23T21:01:12.800Z,18.80
2019-02-23T21:03:42.271Z,19.23
2019-02-23T21:06:12.214Z,18.93
2019-02-23T21:08:41.284Z,17.00
2019-02-23T21:11:10.823Z,17.30
2019-02-23T21:13:40.289Z,18.30
2019-02-23T21:16:09.524Z,17.40
2019-02-23T21:18:38.572Z,22.70
2019-02-23T21:21:07.893Z,24.90
2019-02-23T21:23:36.955Z,37.63
2019-02-23T21:26:07.102Z,34.13
2019-02-23T21:28:36.184Z,27.42
2019-02-23T21:31:05.252Z,27.87
2019-02-23T21:33:34.338Z,24.23
2019-02-23T21:36:03.520Z,24.27
2019-02-23T21:38:32.544Z,19.93
2019-02-23T21:41:01.986Z,19.13
2019-02-23T21:43:31.191Z,23.05
2019-02-23T21:46:00.289Z,21.00
2019-02-23T21:48:29.512Z,18.13
2019-02-23T21:50:59.273Z,16.60
2019-02-23T21:53:28.868Z,15.90
2019-02-23T21:55:58.276Z,23.03
2019-02-23T21:58:28.408Z,15.98
2019-02-23T22:00:58.180Z,20.37
2019-02-23T22:03:28.300Z,18.43
2019-02-23T22:05:57.472Z,19.67
2019-02-23T22:08:27.287Z,18.77
2019-02-23T22:10:56.713Z,20.27
2019-02-23T22:13:25.849Z,18.30
2019-02-23T22:15:55.249Z,18.93
2019-02-23T22:18:24.572Z,16.95
2019-02-23T22:20:54.484Z,15.93
2019-02-23T22:23:24.485Z,24.13
2019-02-23T22:25:53.602Z,18.07
2019-02-23T22:28:22.821Z,17.92
2019-02-23T22:30:52.042Z,22.57
2019-02-23T22:35:57.269Z,21.43
2019-02-23T22:38:26.481Z,18.33
2019-02-23T22:40:55.620Z,16.07
2019-02-23T22:43:24.695Z,19.02
2019-02-23T22:45:57.770Z,16.77
2019-02-23T22:48:27.124Z,18.17
2019-02-23T22:50:56.552Z,19.12
2019-02-23T22:53:26.240Z,18.50
2019-02-23T22:55:55.418Z,16.70
2019-02-23T22:58:24.937Z,17.10
2019-02-23T23:00:55.473Z,21.43
2019-02-23T23:03:24.593Z,18.23
2019-02-23T23:05:53.960Z,18.80
2019-02-23T23:08:23.152Z,17.77
2019-02-23T23:10:52.192Z,18.30
2019-02-23T23:13:21.645Z,18.23
2019-02-23T23:15:51.377Z,16.43
2019-02-23T23:18:20.892Z,19.23
2019-02-23T23:20:50.305Z,17.27
2019-02-23T23:23:19.460Z,18.03
2019-02-23T23:25:48.564Z,22.93
2019-02-23T23:28:18.581Z,20.35
2019-02-23T23:30:47.670Z,18.60
2019-02-23T23:33:16.924Z,18.73
2019-02-23T23:35:46.354Z,19.30
2019-02-23T23:38:15.424Z,18.62
2019-02-23T23:40:44.898Z,18.47
2019-02-23T23:43:14.320Z,18.10
2019-02-23T23:45:44.904Z,18.17
2019-02-23T23:48:14.302Z,20.57
2019-02-23T23:50:43.682Z,19.00
2019-02-23T23:53:13.266Z,17.83
2019-02-23T23:55:42.905Z,19.13
2019-02-23T23:58:12.056Z,21.90
